sensor_id;sensor_type;location;lat;lon;timestamp;P1;durP1;ratioP1;P2;durP2;ratioP2
21733;SDS011;11029;47.820;10.534;2023-05-07T00:01:22;3.15;;;2.85;;
21733;SDS011;11029;47.820;10.534;2023-05-07T00:03:49;5.47;;;2.55;;
21733;SDS011;11029;47.820;10.534;2023-05-07T00:06:16;2.45;;;2.25;;
21733;SDS011;11029;47.820;10.534;2023-05-07T00:08:43;2.40;;;2.20;;
21733;SDS011;11029;47.820;10.534;2023-05-07T00:11:10;2.30;;;2.10;;
21733;SDS011;11029;47.820;10.534;2023-05-07T00:13:36;2.67;;;2.47;;
21733;SDS011;11029;47.820;10.534;2023-05-07T00:16:03;2.50;;;2.35;;
21733;SDS011;11029;47.820;10.534;2023-05-07T00:18:30;2.28;;;2.08;;
21733;SDS011;11029;47.820;10.534;2023-05-07T00:20:57;4.32;;;2.25;;
21733;SDS011;11029;47.820;10.534;2023-05-07T00:23:24;2.22;;;2.13;;
21733;SDS011;11029;47.820;10.534;2023-05-07T00:25:51;3.08;;;2.42;;
21733;SDS011;11029;47.820;10.534;2023-05-07T00:28:17;2.85;;;2.30;;
21733;SDS011;11029;47.820;10.534;2023-05-07T00:30:44;2.42;;;2.33;;
21733;SDS011;11029;47.820;10.534;2023-05-07T00:33:11;3.92;;;2.45;;
21733;SDS011;11029;47.820;10.534;2023-05-07T00:35:38;4.45;;;3.42;;
21733;SDS011;11029;47.820;10.534;2023-05-07T00:38:04;4.88;;;3.10;;
21733;SDS011;11029;47.820;10.534;2023-05-07T00:40:31;3.40;;;2.88;;
21733;SDS011;11029;47.820;10.534;2023-05-07T00:42:58;2.80;;;2.60;;
21733;SDS011;11029;47.820;10.534;2023-05-07T00:45:26;3.05;;;2.75;;
21733;SDS011;11029;47.820;10.534;2023-05-07T00:47:55;4.30;;;3.00;;
21733;SDS011;11029;47.820;10.534;2023-05-07T00:50:25;3.40;;;3.10;;
21733;SDS011;11029;47.820;10.534;2023-05-07T00:52:53;4.10;;;3.45;;
21733;SDS011;11029;47.820;10.534;2023-05-07T00:55:21;3.83;;;3.40;;
21733;SDS011;11029;47.820;10.534;2023-05-07T00:57:49;3.10;;;2.90;;
21733;SDS011;11029;47.820;10.534;2023-05-07T01:00:17;3.33;;;3.08;;
21733;SDS011;11029;47.820;10.534;2023-05-07T01:02:44;3.90;;;2.92;;
21733;SDS011;11029;47.820;10.534;2023-05-07T01:05:12;4.00;;;3.53;;
21733;SDS011;11029;47.820;10.534;2023-05-07T01:07:41;4.45;;;3.10;;
21733;SDS011;11029;47.820;10.534;2023-05-07T01:10:08;3.42;;;3.13;;
21733;SDS011;11029;47.820;10.534;2023-05-07T01:12:37;2.72;;;2.53;;
21733;SDS011;11029;47.820;10.534;2023-05-07T01:15:07;3.03;;;2.70;;
21733;SDS011;11029;47.820;10.534;2023-05-07T01:17:35;2.97;;;2.78;;
21733;SDS011;11029;47.820;10.534;2023-05-07T01:20:05;2.80;;;2.60;;
21733;SDS011;11029;47.820;10.534;2023-05-07T01:22:34;2.80;;;2.60;;
21733;SDS011;11029;47.820;10.534;2023-05-07T01:25:06;3.45;;;2.90;;
21733;SDS011;11029;47.820;10.534;2023-05-07T01:27:36;3.40;;;3.13;;
21733;SDS011;11029;47.820;10.534;2023-05-07T01:30:04;3.10;;;2.90;;
21733;SDS011;11029;47.820;10.534;2023-05-07T01:32:42;4.82;;;4.30;;
21733;SDS011;11029;47.820;10.534;2023-05-07T01:35:13;4.25;;;3.85;;
21733;SDS011;11029;47.820;10.534;2023-05-07T01:37:46;4.28;;;3.28;;
21733;SDS011;11029;47.820;10.534;2023-05-07T01:40:14;5.28;;;3.70;;
21733;SDS011;11029;47.820;10.534;2023-05-07T01:42:41;4.05;;;3.17;;
21733;SDS011;11029;47.820;10.534;2023-05-07T01:45:10;3.60;;;3.30;;
21733;SDS011;11029;47.820;10.534;2023-05-07T01:47:37;3.00;;;2.78;;
21733;SDS011;11029;47.820;10.534;2023-05-07T01:50:05;3.20;;;2.90;;
21733;SDS011;11029;47.820;10.534;2023-05-07T01:52:36;3.13;;;2.92;;
21733;SDS011;11029;47.820;10.534;2023-05-07T01:55:04;4.38;;;2.60;;
21733;SDS011;11029;47.820;10.534;2023-05-07T01:57:32;2.80;;;2.60;;
21733;SDS011;11029;47.820;10.534;2023-05-07T01:59:59;2.50;;;2.30;;
21733;SDS011;11029;47.820;10.534;2023-05-07T02:02:26;4.05;;;2.65;;
21733;SDS011;11029;47.820;10.534;2023-05-07T02:04:55;3.25;;;2.80;;
21733;SDS011;11029;47.820;10.534;2023-05-07T02:07:23;3.35;;;2.70;;
21733;SDS011;11029;47.820;10.534;2023-05-07T02:09:51;2.70;;;2.50;;
21733;SDS011;11029;47.820;10.534;2023-05-07T02:12:18;4.45;;;2.88;;
21733;SDS011;11029;47.820;10.534;2023-05-07T02:14:45;4.65;;;2.95;;
21733;SDS011;11029;47.820;10.534;2023-05-07T02:17:13;3.88;;;3.20;;
21733;SDS011;11029;47.820;10.534;2023-05-07T02:19:45;2.67;;;2.47;;
21733;SDS011;11029;47.820;10.534;2023-05-07T02:22:11;2.88;;;2.67;;
21733;SDS011;11029;47.820;10.534;2023-05-07T02:24:38;3.80;;;2.67;;
21733;SDS011;11029;47.820;10.534;2023-05-07T02:27:05;2.75;;;2.55;;
21733;SDS011;11029;47.820;10.534;2023-05-07T02:29:32;2.95;;;2.72;;
21733;SDS011;11029;47.820;10.534;2023-05-07T02:31:58;4.78;;;2.70;;
21733;SDS011;11029;47.820;10.534;2023-05-07T02:34:25;2.85;;;2.65;;
21733;SDS011;11029;47.820;10.534;2023-05-07T02:36:52;4.03;;;2.85;;
21733;SDS011;11029;47.820;10.534;2023-05-07T02:39:22;3.78;;;2.67;;
21733;SDS011;11029;47.820;10.534;2023-05-07T02:41:49;2.70;;;2.50;;
21733;SDS011;11029;47.820;10.534;2023-05-07T02:44:16;3.35;;;2.70;;
21733;SDS011;11029;47.820;10.534;2023-05-07T02:46:45;5.47;;;2.85;;
21733;SDS011;11029;47.820;10.534;2023-05-07T02:49:12;2.50;;;2.30;;
21733;SDS011;11029;47.820;10.534;2023-05-07T02:51:39;2.58;;;2.38;;
21733;SDS011;11029;47.820;10.534;2023-05-07T02:54:11;3.08;;;2.80;;
21733;SDS011;11029;47.820;10.534;2023-05-07T02:56:37;5.03;;;3.25;;
21733;SDS011;11029;47.820;10.534;2023-05-07T02:59:04;3.50;;;3.20;;
21733;SDS011;11029;47.820;10.534;2023-05-07T03:01:36;3.23;;;2.33;;
21733;SDS011;11029;47.820;10.534;2023-05-07T03:04:05;2.80;;;2.60;;
21733;SDS011;11029;47.820;10.534;2023-05-07T03:06:32;4.65;;;2.55;;
21733;SDS011;11029;47.820;10.534;2023-05-07T03:08:59;5.03;;;3.22;;
21733;SDS011;11029;47.820;10.534;2023-05-07T03:11:26;3.17;;;2.55;;
21733;SDS011;11029;47.820;10.534;2023-05-07T03:13:53;2.53;;;2.35;;
21733;SDS011;11029;47.820;10.534;2023-05-07T03:16:20;5.43;;;2.40;;
21733;SDS011;11029;47.820;10.534;2023-05-07T03:18:47;3.33;;;2.50;;
21733;SDS011;11029;47.820;10.534;2023-05-07T03:21:14;3.65;;;2.80;;
21733;SDS011;11029;47.820;10.534;2023-05-07T03:23:41;3.55;;;3.00;;
21733;SDS011;11029;47.820;10.534;2023-05-07T03:26:08;3.10;;;2.80;;
21733;SDS011;11029;47.820;10.534;2023-05-07T03:28:34;2.88;;;2.65;;
21733;SDS011;11029;47.820;10.534;2023-05-07T03:31:04;3.10;;;2.90;;
21733;SDS011;11029;47.820;10.534;2023-05-07T03:33:35;2.88;;;2.67;;
21733;SDS011;11029;47.820;10.534;2023-05-07T03:36:04;2.72;;;2.53;;
21733;SDS011;11029;47.820;10.534;2023-05-07T03:38:31;3.83;;;2.50;;
21733;SDS011;11029;47.820;10.534;2023-05-07T03:40:58;2.90;;;2.70;;
21733;SDS011;11029;47.820;10.534;2023-05-07T03:43:25;2.67;;;2.30;;
21733;SDS011;11029;47.820;10.534;2023-05-07T03:46:00;3.35;;;2.95;;
21733;SDS011;11029;47.820;10.534;2023-05-07T03:48:27;2.72;;;2.53;;
21733;SDS011;11029;47.820;10.534;2023-05-07T03:50:59;6.75;;;6.07;;
21733;SDS011;11029;47.820;10.534;2023-05-07T03:53:30;4.68;;;4.00;;
21733;SDS011;11029;47.820;10.534;2023-05-07T03:55:57;3.17;;;2.97;;
21733;SDS011;11029;47.820;10.534;2023-05-07T03:58:24;2.70;;;2.50;;
21733;SDS011;11029;47.820;10.534;2023-05-07T04:00:53;2.58;;;2.38;;
21733;SDS011;11029;47.820;10.534;2023-05-07T04:03:26;2.35;;;2.17;;
21733;SDS011;11029;47.820;10.534;2023-05-07T04:05:56;3.28;;;2.17;;
21733;SDS011;11029;47.820;10.534;2023-05-07T04:08:22;2.97;;;2.78;;
21733;SDS011;11029;47.820;10.534;2023-05-07T04:10:55;3.05;;;2.83;;
21733;SDS011;11029;47.820;10.534;2023-05-07T04:13:26;2.70;;;2.50;;
21733;SDS011;11029;47.820;10.534;2023-05-07T04:15:54;3.42;;;3.13;;
21733;SDS011;11029;47.820;10.534;2023-05-07T04:18:24;3.67;;;2.85;;
21733;SDS011;11029;47.820;10.534;2023-05-07T04:20:51;4.00;;;3.70;;
21733;SDS011;11029;47.820;10.534;2023-05-07T04:23:18;12.93;;;8.85;;
21733;SDS011;11029;47.820;10.534;2023-05-07T04:25:44;11.63;;;6.55;;
21733;SDS011;11029;47.820;10.534;2023-05-07T04:28:30;4.93;;;3.92;;
21733;SDS011;11029;47.820;10.534;2023-05-07T04:30:57;5.10;;;4.60;;
21733;SDS011;11029;47.820;10.534;2023-05-07T04:33:24;3.53;;;3.22;;
21733;SDS011;11029;47.820;10.534;2023-05-07T04:35:51;3.25;;;2.92;;
21733;SDS011;11029;47.820;10.534;2023-05-07T04:38:18;3.60;;;3.30;;
21733;SDS011;11029;47.820;10.534;2023-05-07T04:40:47;3.53;;;3.13;;
21733;SDS011;11029;47.820;10.534;2023-05-07T04:43:19;3.20;;;2.90;;
21733;SDS011;11029;47.820;10.534;2023-05-07T04:45:51;2.88;;;2.67;;
21733;SDS011;11029;47.820;10.534;2023-05-07T04:48:21;2.72;;;2.53;;
21733;SDS011;11029;47.820;10.534;2023-05-07T04:50:49;3.47;;;3.20;;
21733;SDS011;11029;47.820;10.534;2023-05-07T04:53:19;3.03;;;2.65;;
21733;SDS011;11029;47.820;10.534;2023-05-07T04:55:48;3.25;;;3.00;;
21733;SDS011;11029;47.820;10.534;2023-05-07T04:58:20;2.67;;;2.47;;
21733;SDS011;11029;47.820;10.534;2023-05-07T05:00:47;2.70;;;2.50;;
21733;SDS011;11029;47.820;10.534;2023-05-07T05:03:14;2.90;;;2.70;;
21733;SDS011;11029;47.820;10.534;2023-05-07T05:05:40;3.00;;;2.80;;
21733;SDS011;11029;47.820;10.534;2023-05-07T05:08:08;2.80;;;2.60;;
21733;SDS011;11029;47.820;10.534;2023-05-07T05:10:37;3.65;;;3.35;;
21733;SDS011;11029;47.820;10.534;2023-05-07T05:13:05;4.47;;;4.07;;
21733;SDS011;11029;47.820;10.534;2023-05-07T05:15:32;3.70;;;3.40;;
21733;SDS011;11029;47.820;10.534;2023-05-07T05:18:00;4.32;;;3.88;;
21733;SDS011;11029;47.820;10.534;2023-05-07T05:20:29;4.45;;;3.38;;
21733;SDS011;11029;47.820;10.534;2023-05-07T05:22:56;3.72;;;3.42;;
21733;SDS011;11029;47.820;10.534;2023-05-07T05:25:22;3.38;;;3.10;;
21733;SDS011;11029;47.820;10.534;2023-05-07T05:27:50;3.72;;;3.42;;
21733;SDS011;11029;47.820;10.534;2023-05-07T05:30:17;4.55;;;4.03;;
21733;SDS011;11029;47.820;10.534;2023-05-07T05:32:45;6.15;;;4.57;;
21733;SDS011;11029;47.820;10.534;2023-05-07T05:35:12;5.97;;;4.50;;
21733;SDS011;11029;47.820;10.534;2023-05-07T05:37:41;6.20;;;4.65;;
21733;SDS011;11029;47.820;10.534;2023-05-07T05:40:08;5.85;;;4.70;;
21733;SDS011;11029;47.820;10.534;2023-05-07T05:42:35;4.85;;;4.35;;
21733;SDS011;11029;47.820;10.534;2023-05-07T05:45:03;4.60;;;4.20;;
21733;SDS011;11029;47.820;10.534;2023-05-07T05:47:31;5.40;;;4.65;;
21733;SDS011;11029;47.820;10.534;2023-05-07T05:49:59;6.65;;;4.80;;
21733;SDS011;11029;47.820;10.534;2023-05-07T05:52:26;5.30;;;4.57;;
21733;SDS011;11029;47.820;10.534;2023-05-07T05:54:54;4.72;;;4.32;;
21733;SDS011;11029;47.820;10.534;2023-05-07T05:57:21;5.40;;;4.20;;
21733;SDS011;11029;47.820;10.534;2023-05-07T05:59:49;4.32;;;3.92;;
21733;SDS011;11029;47.820;10.534;2023-05-07T06:02:16;4.65;;;4.00;;
21733;SDS011;11029;47.820;10.534;2023-05-07T06:04:43;6.72;;;3.90;;
21733;SDS011;11029;47.820;10.534;2023-05-07T06:07:15;4.60;;;4.20;;
21733;SDS011;11029;47.820;10.534;2023-05-07T06:09:41;4.72;;;4.10;;
21733;SDS011;11029;47.820;10.534;2023-05-07T06:12:08;5.30;;;4.80;;
21733;SDS011;11029;47.820;10.534;2023-05-07T06:14:35;6.72;;;4.57;;
21733;SDS011;11029;47.820;10.534;2023-05-07T06:17:02;4.45;;;4.05;;
21733;SDS011;11029;47.820;10.534;2023-05-07T06:19:29;3.00;;;2.80;;
21733;SDS011;11029;47.820;10.534;2023-05-07T06:21:58;2.40;;;2.22;;
21733;SDS011;11029;47.820;10.534;2023-05-07T06:24:28;2.72;;;2.53;;
21733;SDS011;11029;47.820;10.534;2023-05-07T06:26:55;3.47;;;2.45;;
21733;SDS011;11029;47.820;10.534;2023-05-07T06:29:25;3.53;;;2.30;;
21733;SDS011;11029;47.820;10.534;2023-05-07T06:31:52;2.90;;;2.70;;
21733;SDS011;11029;47.820;10.534;2023-05-07T06:34:21;2.70;;;2.50;;
21733;SDS011;11029;47.820;10.534;2023-05-07T06:36:48;2.88;;;2.67;;
21733;SDS011;11029;47.820;10.534;2023-05-07T06:39:24;3.17;;;2.65;;
21733;SDS011;11029;47.820;10.534;2023-05-07T06:41:51;2.90;;;2.70;;
21733;SDS011;11029;47.820;10.534;2023-05-07T06:44:29;3.38;;;2.40;;
21733;SDS011;11029;47.820;10.534;2023-05-07T06:47:06;3.05;;;2.78;;
21733;SDS011;11029;47.820;10.534;2023-05-07T06:49:34;3.15;;;2.85;;
21733;SDS011;11029;47.820;10.534;2023-05-07T06:52:00;2.63;;;2.42;;
21733;SDS011;11029;47.820;10.534;2023-05-07T06:54:28;2.75;;;2.20;;
21733;SDS011;11029;47.820;10.534;2023-05-07T06:56:55;2.40;;;2.20;;
21733;SDS011;11029;47.820;10.534;2023-05-07T06:59:24;2.97;;;2.50;;
21733;SDS011;11029;47.820;10.534;2023-05-07T07:01:51;2.60;;;2.40;;
21733;SDS011;11029;47.820;10.534;2023-05-07T07:04:18;2.70;;;2.45;;
21733;SDS011;11029;47.820;10.534;2023-05-07T07:06:53;2.58;;;2.35;;
21733;SDS011;11029;47.820;10.534;2023-05-07T07:09:20;2.85;;;1.83;;
21733;SDS011;11029;47.820;10.534;2023-05-07T07:11:49;1.90;;;1.80;;
21733;SDS011;11029;47.820;10.534;2023-05-07T07:14:16;3.03;;;1.80;;
21733;SDS011;11029;47.820;10.534;2023-05-07T07:16:47;1.58;;;1.48;;
21733;SDS011;11029;47.820;10.534;2023-05-07T07:19:16;1.70;;;1.60;;
21733;SDS011;11029;47.820;10.534;2023-05-07T07:21:44;2.03;;;1.50;;
21733;SDS011;11029;47.820;10.534;2023-05-07T07:24:12;1.50;;;1.40;;
21733;SDS011;11029;47.820;10.534;2023-05-07T07:26:45;2.47;;;1.70;;
21733;SDS011;11029;47.820;10.534;2023-05-07T07:29:12;1.83;;;1.70;;
21733;SDS011;11029;47.820;10.534;2023-05-07T07:31:40;1.80;;;1.70;;
21733;SDS011;11029;47.820;10.534;2023-05-07T07:34:08;2.20;;;1.80;;
21733;SDS011;11029;47.820;10.534;2023-05-07T07:36:35;2.25;;;1.73;;
21733;SDS011;11029;47.820;10.534;2023-05-07T07:39:14;6.55;;;1.73;;
21733;SDS011;11029;47.820;10.534;2023-05-07T07:41:41;1.70;;;1.60;;
21733;SDS011;11029;47.820;10.534;2023-05-07T07:44:08;1.90;;;1.80;;
21733;SDS011;11029;47.820;10.534;2023-05-07T07:46:41;4.35;;;1.83;;
21733;SDS011;11029;47.820;10.534;2023-05-07T07:49:08;1.98;;;1.83;;
21733;SDS011;11029;47.820;10.534;2023-05-07T07:51:34;2.20;;;1.98;;
21733;SDS011;11029;47.820;10.534;2023-05-07T07:54:01;1.75;;;1.65;;
21733;SDS011;11029;47.820;10.534;2023-05-07T07:56:31;1.50;;;1.40;;
21733;SDS011;11029;47.820;10.534;2023-05-07T07:59:00;1.77;;;1.58;;
21733;SDS011;11029;47.820;10.534;2023-05-07T08:01:29;2.25;;;1.50;;
21733;SDS011;11029;47.820;10.534;2023-05-07T08:03:57;2.97;;;1.60;;
21733;SDS011;11029;47.820;10.534;2023-05-07T08:06:25;1.60;;;1.50;;
21733;SDS011;11029;47.820;10.534;2023-05-07T08:08:53;3.28;;;1.60;;
21733;SDS011;11029;47.820;10.534;2023-05-07T08:11:20;1.80;;;1.52;;
21733;SDS011;11029;47.820;10.534;2023-05-07T08:13:48;1.85;;;1.38;;
21733;SDS011;11029;47.820;10.534;2023-05-07T08:16:15;1.70;;;1.60;;
21733;SDS011;11029;47.820;10.534;2023-05-07T08:18:42;4.53;;;1.40;;
21733;SDS011;11029;47.820;10.534;2023-05-07T08:21:08;1.38;;;1.27;;
21733;SDS011;11029;47.820;10.534;2023-05-07T08:23:35;2.00;;;1.73;;
21733;SDS011;11029;47.820;10.534;2023-05-07T08:26:03;1.70;;;1.60;;
21733;SDS011;11029;47.820;10.534;2023-05-07T08:28:30;1.73;;;1.63;;
21733;SDS011;11029;47.820;10.534;2023-05-07T08:30:57;1.63;;;1.52;;
21733;SDS011;11029;47.820;10.534;2023-05-07T08:33:28;1.90;;;1.60;;
21733;SDS011;11029;47.820;10.534;2023-05-07T08:35:55;1.85;;;1.75;;
21733;SDS011;11029;47.820;10.534;2023-05-07T08:38:22;3.20;;;1.70;;
21733;SDS011;11029;47.820;10.534;2023-05-07T08:40:49;1.80;;;1.70;;
21733;SDS011;11029;47.820;10.534;2023-05-07T08:43:18;1.65;;;1.55;;
21733;SDS011;11029;47.820;10.534;2023-05-07T08:45:46;1.77;;;1.58;;
21733;SDS011;11029;47.820;10.534;2023-05-07T08:48:17;1.88;;;1.77;;
21733;SDS011;11029;47.820;10.534;2023-05-07T08:50:52;3.58;;;1.90;;
21733;SDS011;11029;47.820;10.534;2023-05-07T08:53:19;1.73;;;1.60;;
21733;SDS011;11029;47.820;10.534;2023-05-07T08:55:48;1.58;;;1.48;;
21733;SDS011;11029;47.820;10.534;2023-05-07T08:58:15;1.70;;;1.60;;
21733;SDS011;11029;47.820;10.534;2023-05-07T09:00:42;1.98;;;1.63;;
21733;SDS011;11029;47.820;10.534;2023-05-07T09:03:10;2.55;;;1.30;;
21733;SDS011;11029;47.820;10.534;2023-05-07T09:05:43;2.33;;;1.40;;
21733;SDS011;11029;47.820;10.534;2023-05-07T09:08:14;3.72;;;1.80;;
21733;SDS011;11029;47.820;10.534;2023-05-07T09:10:44;2.13;;;1.50;;
21733;SDS011;11029;47.820;10.534;2023-05-07T09:13:11;1.77;;;1.58;;
21733;SDS011;11029;47.820;10.534;2023-05-07T09:15:40;2.65;;;1.70;;
21733;SDS011;11029;47.820;10.534;2023-05-07T09:18:08;4.70;;;2.03;;
21733;SDS011;11029;47.820;10.534;2023-05-07T09:20:37;2.42;;;1.63;;
21733;SDS011;11029;47.820;10.534;2023-05-07T09:23:08;2.00;;;1.40;;
21733;SDS011;11029;47.820;10.534;2023-05-07T09:25:36;2.15;;;1.95;;
21733;SDS011;11029;47.820;10.534;2023-05-07T09:28:12;3.92;;;1.65;;
21733;SDS011;11029;47.820;10.534;2023-05-07T09:30:40;1.65;;;1.55;;
21733;SDS011;11029;47.820;10.534;2023-05-07T09:33:09;1.60;;;1.50;;
21733;SDS011;11029;47.820;10.534;2023-05-07T09:35:39;1.90;;;1.63;;
21733;SDS011;11029;47.820;10.534;2023-05-07T09:38:11;1.88;;;1.73;;
21733;SDS011;11029;47.820;10.534;2023-05-07T09:40:39;2.60;;;1.80;;
21733;SDS011;11029;47.820;10.534;2023-05-07T09:43:11;2.97;;;1.50;;
21733;SDS011;11029;47.820;10.534;2023-05-07T09:45:49;1.60;;;1.50;;
21733;SDS011;11029;47.820;10.534;2023-05-07T09:48:19;2.05;;;1.55;;
21733;SDS011;11029;47.820;10.534;2023-05-07T09:50:49;1.40;;;1.30;;
21733;SDS011;11029;47.820;10.534;2023-05-07T09:53:23;2.05;;;1.52;;
21733;SDS011;11029;47.820;10.534;2023-05-07T09:55:51;1.42;;;1.33;;
21733;SDS011;11029;47.820;10.534;2023-05-07T09:58:19;1.60;;;1.50;;
21733;SDS011;11029;47.820;10.534;2023-05-07T10:00:49;1.50;;;1.40;;
21733;SDS011;11029;47.820;10.534;2023-05-07T10:03:17;1.75;;;1.40;;
21733;SDS011;11029;47.820;10.534;2023-05-07T10:08:27;1.52;;;1.42;;
21733;SDS011;11029;47.820;10.534;2023-05-07T10:10:59;1.60;;;1.50;;
21733;SDS011;11029;47.820;10.534;2023-05-07T10:13:27;1.90;;;1.50;;
21733;SDS011;11029;47.820;10.534;2023-05-07T10:15:57;2.67;;;1.20;;
21733;SDS011;11029;47.820;10.534;2023-05-07T10:18:28;1.48;;;1.30;;
21733;SDS011;11029;47.820;10.534;2023-05-07T10:21:15;1.55;;;1.17;;
21733;SDS011;11029;47.820;10.534;2023-05-07T10:23:45;1.67;;;1.50;;
21733;SDS011;11029;47.820;10.534;2023-05-07T10:26:20;1.77;;;1.45;;
21733;SDS011;11029;47.820;10.534;2023-05-07T10:28:49;2.47;;;1.50;;
21733;SDS011;11029;47.820;10.534;2023-05-07T10:34:01;1.38;;;1.27;;
21733;SDS011;11029;47.820;10.534;2023-05-07T10:36:34;1.45;;;1.15;;
21733;SDS011;11029;47.820;10.534;2023-05-07T10:39:05;1.38;;;1.10;;
21733;SDS011;11029;47.820;10.534;2023-05-07T10:41:33;1.75;;;1.60;;
21733;SDS011;11029;47.820;10.534;2023-05-07T10:44:00;3.45;;;1.50;;
21733;SDS011;11029;47.820;10.534;2023-05-07T10:46:32;2.83;;;1.17;;
21733;SDS011;11029;47.820;10.534;2023-05-07T10:49:16;1.50;;;1.30;;
21733;SDS011;11029;47.820;10.534;2023-05-07T10:52:13;1.67;;;1.17;;
21733;SDS011;11029;47.820;10.534;2023-05-07T10:58:22;2.80;;;1.38;;
21733;SDS011;11029;47.820;10.534;2023-05-07T11:01:47;1.45;;;1.35;;
21733;SDS011;11029;47.820;10.534;2023-05-07T11:04:23;1.67;;;1.58;;
21733;SDS011;11029;47.820;10.534;2023-05-07T11:17:57;1.95;;;1.73;;
21733;SDS011;11029;47.820;10.534;2023-05-07T11:26:19;1.30;;;1.20;;
21733;SDS011;11029;47.820;10.534;2023-05-07T11:28:47;3.00;;;1.63;;
21733;SDS011;11029;47.820;10.534;2023-05-07T11:31:15;2.10;;;1.50;;
21733;SDS011;11029;47.820;10.534;2023-05-07T11:33:47;2.38;;;1.50;;
21733;SDS011;11029;47.820;10.534;2023-05-07T11:36:18;2.53;;;1.50;;
21733;SDS011;11029;47.820;10.534;2023-05-07T11:38:47;3.60;;;1.80;;
21733;SDS011;11029;47.820;10.534;2023-05-07T11:41:15;1.77;;;1.17;;
21733;SDS011;11029;47.820;10.534;2023-05-07T11:44:03;4.05;;;1.70;;
21733;SDS011;11029;47.820;10.534;2023-05-07T11:46:29;1.45;;;1.30;;
21733;SDS011;11029;47.820;10.534;2023-05-07T11:48:56;1.75;;;1.52;;
21733;SDS011;11029;47.820;10.534;2023-05-07T11:51:24;4.80;;;1.50;;
21733;SDS011;11029;47.820;10.534;2023-05-07T11:53:52;2.70;;;1.75;;
21733;SDS011;11029;47.820;10.534;2023-05-07T11:56:20;1.85;;;1.60;;
21733;SDS011;11029;47.820;10.534;2023-05-07T11:58:47;1.58;;;1.30;;
21733;SDS011;11029;47.820;10.534;2023-05-07T12:01:14;2.53;;;1.60;;
21733;SDS011;11029;47.820;10.534;2023-05-07T12:03:43;1.60;;;1.50;;
21733;SDS011;11029;47.820;10.534;2023-05-07T12:06:16;1.50;;;1.40;;
21733;SDS011;11029;47.820;10.534;2023-05-07T12:08:43;2.80;;;1.30;;
21733;SDS011;11029;47.820;10.534;2023-05-07T12:11:14;1.83;;;1.60;;
21733;SDS011;11029;47.820;10.534;2023-05-07T12:13:44;1.48;;;1.38;;
21733;SDS011;11029;47.820;10.534;2023-05-07T12:16:11;2.40;;;1.50;;
21733;SDS011;11029;47.820;10.534;2023-05-07T12:18:38;2.33;;;1.30;;
21733;SDS011;11029;47.820;10.534;2023-05-07T12:21:06;3.55;;;1.30;;
21733;SDS011;11029;47.820;10.534;2023-05-07T12:23:33;1.52;;;1.42;;
21733;SDS011;11029;47.820;10.534;2023-05-07T12:26:02;1.55;;;1.40;;
21733;SDS011;11029;47.820;10.534;2023-05-07T12:28:36;1.75;;;1.60;;
21733;SDS011;11029;47.820;10.534;2023-05-07T12:31:04;1.52;;;1.33;;
21733;SDS011;11029;47.820;10.534;2023-05-07T12:33:32;2.65;;;1.60;;
21733;SDS011;11029;47.820;10.534;2023-05-07T12:36:02;1.63;;;1.52;;
21733;SDS011;11029;47.820;10.534;2023-05-07T12:38:35;1.23;;;1.20;;
21733;SDS011;11029;47.820;10.534;2023-05-07T12:41:03;1.35;;;1.25;;
21733;SDS011;11029;47.820;10.534;2023-05-07T12:43:30;2.25;;;1.70;;
21733;SDS011;11029;47.820;10.534;2023-05-07T12:45:58;1.50;;;1.40;;
21733;SDS011;11029;47.820;10.534;2023-05-07T12:48:27;1.50;;;1.40;;
21733;SDS011;11029;47.820;10.534;2023-05-07T12:50:54;1.67;;;1.48;;
21733;SDS011;11029;47.820;10.534;2023-05-07T12:53:23;2.00;;;1.60;;
21733;SDS011;11029;47.820;10.534;2023-05-07T12:55:52;1.50;;;1.40;;
21733;SDS011;11029;47.820;10.534;2023-05-07T12:58:24;2.72;;;1.67;;
21733;SDS011;11029;47.820;10.534;2023-05-07T13:00:54;4.40;;;1.67;;
21733;SDS011;11029;47.820;10.534;2023-05-07T13:03:36;2.42;;;1.50;;
21733;SDS011;11029;47.820;10.534;2023-05-07T13:06:05;1.65;;;1.30;;
21733;SDS011;11029;47.820;10.534;2023-05-07T13:08:37;7.28;;;2.13;;
21733;SDS011;11029;47.820;10.534;2023-05-07T13:11:10;1.92;;;1.40;;
21733;SDS011;11029;47.820;10.534;2023-05-07T13:13:38;1.63;;;1.30;;
21733;SDS011;11029;47.820;10.534;2023-05-07T13:16:07;1.73;;;1.48;;
21733;SDS011;11029;47.820;10.534;2023-05-07T13:18:35;1.52;;;1.10;;
21733;SDS011;11029;47.820;10.534;2023-05-07T13:21:02;1.92;;;1.17;;
21733;SDS011;11029;47.820;10.534;2023-05-07T13:23:30;2.80;;;1.60;;
21733;SDS011;11029;47.820;10.534;2023-05-07T13:25:56;2.25;;;1.40;;
21733;SDS011;11029;47.820;10.534;2023-05-07T13:28:23;2.63;;;1.52;;
21733;SDS011;11029;47.820;10.534;2023-05-07T13:30:52;2.20;;;1.75;;
21733;SDS011;11029;47.820;10.534;2023-05-07T13:33:19;5.18;;;3.92;;
21733;SDS011;11029;47.820;10.534;2023-05-07T13:35:46;5.18;;;4.00;;
21733;SDS011;11029;47.820;10.534;2023-05-07T13:38:12;3.92;;;3.53;;
21733;SDS011;11029;47.820;10.534;2023-05-07T13:40:42;5.05;;;3.40;;
21733;SDS011;11029;47.820;10.534;2023-05-07T13:43:08;2.83;;;2.30;;
21733;SDS011;11029;47.820;10.534;2023-05-07T13:45:35;3.15;;;2.42;;
21733;SDS011;11029;47.820;10.534;2023-05-07T13:48:02;2.53;;;2.33;;
21733;SDS011;11029;47.820;10.534;2023-05-07T13:50:29;3.50;;;2.30;;
21733;SDS011;11029;47.820;10.534;2023-05-07T13:52:56;3.08;;;2.33;;
21733;SDS011;11029;47.820;10.534;2023-05-07T13:55:23;3.53;;;3.03;;
21733;SDS011;11029;47.820;10.534;2023-05-07T13:57:57;3.67;;;2.60;;
21733;SDS011;11029;47.820;10.534;2023-05-07T14:00:25;5.05;;;2.58;;
21733;SDS011;11029;47.820;10.534;2023-05-07T14:02:53;4.25;;;2.53;;
21733;SDS011;11029;47.820;10.534;2023-05-07T14:05:21;2.85;;;2.63;;
21733;SDS011;11029;47.820;10.534;2023-05-07T14:07:51;3.03;;;2.30;;
21733;SDS011;11029;47.820;10.534;2023-05-07T14:10:18;3.13;;;2.60;;
21733;SDS011;11029;47.820;10.534;2023-05-07T14:12:45;3.40;;;2.40;;
21733;SDS011;11029;47.820;10.534;2023-05-07T14:15:14;3.17;;;2.35;;
21733;SDS011;11029;47.820;10.534;2023-05-07T14:17:42;2.65;;;1.83;;
21733;SDS011;11029;47.820;10.534;2023-05-07T14:20:09;2.05;;;1.92;;
21733;SDS011;11029;47.820;10.534;2023-05-07T14:22:37;2.20;;;2.00;;
21733;SDS011;11029;47.820;10.534;2023-05-07T14:25:04;3.60;;;1.85;;
21733;SDS011;11029;47.820;10.534;2023-05-07T14:27:32;1.92;;;1.48;;
21733;SDS011;11029;47.820;10.534;2023-05-07T14:29:59;3.20;;;1.90;;
21733;SDS011;11029;47.820;10.534;2023-05-07T14:32:26;3.50;;;1.80;;
21733;SDS011;11029;47.820;10.534;2023-05-07T14:34:52;2.42;;;1.30;;
21733;SDS011;11029;47.820;10.534;2023-05-07T14:37:19;1.63;;;1.40;;
21733;SDS011;11029;47.820;10.534;2023-05-07T14:39:46;2.25;;;1.40;;
21733;SDS011;11029;47.820;10.534;2023-05-07T14:42:16;2.33;;;1.40;;
21733;SDS011;11029;47.820;10.534;2023-05-07T14:44:44;1.75;;;1.05;;
21733;SDS011;11029;47.820;10.534;2023-05-07T14:47:12;1.88;;;1.23;;
21733;SDS011;11029;47.820;10.534;2023-05-07T14:49:39;1.30;;;1.10;;
21733;SDS011;11029;47.820;10.534;2023-05-07T14:52:07;0.85;;;0.85;;
21733;SDS011;11029;47.820;10.534;2023-05-07T14:54:36;1.13;;;1.02;;
21733;SDS011;11029;47.820;10.534;2023-05-07T14:57:04;1.63;;;1.30;;
21733;SDS011;11029;47.820;10.534;2023-05-07T14:59:32;0.95;;;0.85;;
21733;SDS011;11029;47.820;10.534;2023-05-07T15:01:58;1.35;;;0.90;;
21733;SDS011;11029;47.820;10.534;2023-05-07T15:04:25;1.08;;;0.95;;
21733;SDS011;11029;47.820;10.534;2023-05-07T15:06:52;2.20;;;1.05;;
21733;SDS011;11029;47.820;10.534;2023-05-07T15:09:20;1.00;;;0.90;;